Time;durP1;ratioP1;P1;durP2;ratioP2;P2;SDS_P1;SDS_P2;PMS_P1;PMS_P2;Temp;Humidity;BMP_temperature;BMP_pressure;BME280_temperature;BME280_humidity;BME280_pressure;Samples;Min_cycle;Max_cycle;Signal;HPM_P1;HPM_P2
2021/07/22 00:02:11;;;;;;;5.03;2.30;;;16.10;99.90;;;;;;10357543;28;20067;-89
2021/07/22 00:07:14;;;;;;;6.82;2.45;;;16.10;99.90;;;;;;10322924;28;20072;-90
2021/07/22 00:12:18;;;;;;;6.47;2.30;;;16.00;99.90;;;;;;10353598;28;20080;-90
2021/07/22 00:17:20;;;;;;;5.65;3.00;;;15.70;99.90;;;;;;10320085;28;20141;-90
2021/07/22 00:22:40;;;;;;;5.95;2.60;;;15.60;99.90;;;;;;10334086;28;20084;-90
2021/07/22 00:27:53;;;;;;;6.43;2.20;;;15.70;99.90;;;;;;10357300;28;20492;-90
2021/07/22 00:32:57;;;;;;;4.25;2.55;;;15.60;99.90;;;;;;10332988;28;20132;-90
2021/07/22 00:38:12;;;;;;;7.82;3.53;;;15.70;99.90;;;;;;10355702;28;20485;-90
2021/07/22 00:43:14;;;;;;;8.95;2.50;;;15.70;99.90;;;;;;10341776;28;20061;-90
2021/07/22 00:48:16;;;;;;;5.72;2.33;;;15.60;99.90;;;;;;10323822;28;20053;-90
2021/07/22 00:53:18;;;;;;;5.03;2.30;;;15.60;99.90;;;;;;10341025;28;20061;-90
2021/07/22 00:58:19;;;;;;;5.80;2.90;;;15.60;99.90;;;;;;10328580;28;20046;-90
2021/07/22 01:03:23;;;;;;;7.32;3.00;;;15.50;99.90;;;;;;10353738;28;20091;-91
2021/07/22 01:08:24;;;;;;;4.55;2.65;;;15.40;99.90;;;;;;10357728;28;20125;-90
2021/07/22 01:13:26;;;;;;;8.05;2.88;;;15.40;99.90;;;;;;10349394;28;20053;-88
2021/07/22 01:18:28;;;;;;;12.75;3.00;;;15.10;99.90;;;;;;10344406;28;20561;-90
2021/07/22 01:23:35;;;;;;;4.47;2.28;;;15.10;99.90;;;;;;10333881;28;20049;-90
2021/07/22 01:28:37;;;;;;;6.43;3.05;;;15.10;99.90;;;;;;10347792;28;20038;-89
2021/07/22 01:34:04;;;;;;;6.53;2.25;;;15.10;99.90;;;;;;10348537;28;20107;-89
2021/07/22 01:39:06;;;;;;;4.78;2.45;;;15.10;99.90;;;;;;10359606;28;20121;-89
2021/07/22 01:44:08;;;;;;;14.57;3.92;;;15.20;99.90;;;;;;10339125;28;20050;-89
2021/07/22 01:49:14;;;;;;;5.32;2.33;;;15.10;99.90;;;;;;10347251;28;20041;-90
2021/07/22 01:54:17;;;;;;;8.18;2.60;;;15.10;99.90;;;;;;10345431;28;20046;-90
2021/07/22 01:59:21;;;;;;;4.88;2.63;;;15.00;99.90;;;;;;10372027;28;20463;-90
2021/07/22 02:04:23;;;;;;;3.80;2.10;;;15.00;99.90;;;;;;10335965;28;20088;-90
2021/07/22 02:09:26;;;;;;;5.22;2.88;;;14.90;99.90;;;;;;10346683;28;20054;-90
2021/07/22 02:14:28;;;;;;;8.23;2.92;;;14.80;99.90;;;;;;10346346;28;20042;-90
2021/07/22 02:19:31;;;;;;;8.10;3.75;;;14.80;99.90;;;;;;10351593;28;20046;-90
2021/07/22 02:24:35;;;;;;;5.28;3.15;;;14.70;99.90;;;;;;10330306;28;20112;-89
2021/07/22 02:29:37;;;;;;;6.40;3.03;;;14.70;99.90;;;;;;10345265;28;20053;-89
2021/07/22 02:34:39;;;;;;;5.00;2.45;;;14.50;99.90;;;;;;10363350;28;20052;-89
2021/07/22 02:39:41;;;;;;;4.97;3.03;;;14.60;99.90;;;;;;10333149;28;20058;-90
2021/07/22 02:44:48;;;;;;;7.30;3.85;;;14.50;99.90;;;;;;10360259;28;20041;-89
2021/07/22 02:49:58;;;;;;;8.18;3.22;;;14.40;99.90;;;;;;10363513;28;20052;-89
2021/07/22 02:55:01;;;;;;;9.27;3.60;;;14.40;99.90;;;;;;10346093;28;20042;-89
2021/07/22 03:00:18;;;;;;;6.50;4.18;;;14.40;99.90;;;;;;10343744;28;20045;-89
2021/07/22 03:05:20;;;;;;;7.85;3.30;;;14.30;99.90;;;;;;10362955;28;20042;-90
2021/07/22 03:10:23;;;;;;;9.18;3.53;;;14.30;99.90;;;;;;10337174;28;20096;-90
2021/07/22 03:15:25;;;;;;;4.93;3.00;;;14.40;99.90;;;;;;10342508;28;20073;-90
2021/07/22 03:20:27;;;;;;;6.10;3.35;;;14.40;99.90;;;;;;10358245;28;20042;-90
2021/07/22 03:25:29;;;;;;;5.35;3.13;;;14.40;99.90;;;;;;10333305;28;20057;-90
2021/07/22 03:30:31;;;;;;;7.28;3.53;;;14.40;99.90;;;;;;10323448;28;20053;-90
2021/07/22 03:35:33;;;;;;;8.95;3.38;;;14.30;99.90;;;;;;10324573;28;20053;-90
2021/07/22 03:40:35;;;;;;;9.32;3.17;;;14.20;99.90;;;;;;10340469;28;20061;-90
2021/07/22 03:45:37;;;;;;;8.55;3.30;;;14.20;99.90;;;;;;10322656;28;20053;-90
2021/07/22 03:50:40;;;;;;;7.03;3.38;;;14.20;99.90;;;;;;10298809;28;20109;-91
2021/07/22 03:55:42;;;;;;;6.00;3.63;;;14.20;99.90;;;;;;10318864;28;20053;-90
2021/07/22 04:00:46;;;;;;;7.43;3.80;;;14.10;99.90;;;;;;10314690;28;20069;-91
2021/07/22 04:05:48;;;;;;;10.70;3.83;;;14.10;99.90;;;;;;10346112;28;20050;-90
2021/07/22 04:10:57;;;;;;;10.02;3.65;;;14.10;99.90;;;;;;10326871;28;20061;-90
2021/07/22 04:16:03;;;;;;;7.95;2.85;;;14.10;99.90;;;;;;10250456;28;20046;-90
2021/07/22 04:21:06;;;;;;;4.78;2.65;;;14.20;99.90;;;;;;10325619;28;20064;-89
2021/07/22 04:26:14;;;;;;;6.35;3.63;;;14.20;99.90;;;;;;10364231;28;20054;-90
2021/07/22 04:31:41;;;;;;;6.80;3.17;;;14.30;99.90;;;;;;10362814;28;20066;-89
2021/07/22 04:36:44;;;;;;;8.13;4.00;;;14.30;99.90;;;;;;10343564;28;20084;-90
2021/07/22 04:41:47;;;;;;;7.90;3.28;;;14.30;99.90;;;;;;10329710;28;20053;-90
2021/07/22 04:46:50;;;;;;;8.63;4.75;;;14.40;99.90;;;;;;10293629;28;20046;-90
2021/07/22 04:51:52;;;;;;;7.47;3.05;;;14.50;99.90;;;;;;10310636;28;20041;-90
2021/07/22 04:56:59;;;;;;;11.13;3.83;;;14.60;99.90;;;;;;10336529;28;20045;-91
2021/07/22 05:08:56;;;;;;;8.57;3.35;;;15.00;99.90;;;;;;10357057;28;20045;-91
2021/07/22 05:13:59;;;;;;;9.48;3.47;;;15.00;99.90;;;;;;10332669;28;20042;-92
2021/07/22 05:19:03;;;;;;;8.73;3.13;;;15.10;99.90;;;;;;10341433;28;20076;-92
2021/07/22 05:24:05;;;;;;;6.57;3.28;;;15.30;99.90;;;;;;10331436;28;20049;-91
2021/07/22 05:29:10;;;;;;;9.50;3.55;;;15.30;99.90;;;;;;10342682;28;20704;-92
2021/07/22 05:34:12;;;;;;;7.45;3.30;;;15.30;99.90;;;;;;10341395;28;20042;-92
2021/07/22 05:39:17;;;;;;;8.77;3.25;;;15.60;99.90;;;;;;10342758;28;20048;-92
2021/07/22 05:44:19;;;;;;;7.55;2.97;;;15.60;99.90;;;;;;10354491;28;20069;-92
2021/07/22 05:49:21;;;;;;;9.57;3.47;;;15.80;99.90;;;;;;10322392;28;20057;-93
2021/07/22 05:54:25;;;;;;;6.32;3.13;;;16.20;99.90;;;;;;10324125;28;20310;-92
2021/07/22 05:59:27;;;;;;;7.28;3.47;;;16.10;99.90;;;;;;10337057;28;20492;-92
2021/07/22 06:04:34;;;;;;;6.40;3.50;;;16.30;99.90;;;;;;10320142;28;20038;-94
2021/07/22 06:10:02;;;;;;;7.82;2.95;;;16.30;99.90;;;;;;10299740;28;20065;-93
2021/07/22 06:21:04;;;;;;;9.82;3.13;;;16.70;99.90;;;;;;10268781;28;20441;-61
2021/07/22 06:26:05;;;;;;;7.97;3.08;;;16.90;99.90;;;;;;10270556;28;20043;-61
2021/07/22 06:31:07;;;;;;;6.18;3.10;;;17.10;99.90;;;;;;10265166;28;20113;-61
2021/07/22 06:36:09;;;;;;;6.32;2.72;;;17.20;99.90;;;;;;10270204;28;20043;-61
2021/07/22 06:41:11;;;;;;;7.50;3.08;;;17.30;99.90;;;;;;10271683;28;20050;-62
2021/07/22 06:46:15;;;;;;;5.90;2.83;;;17.50;99.90;;;;;;10261745;28;20523;-62
2021/07/22 06:51:17;;;;;;;6.43;2.97;;;17.70;99.90;;;;;;10260351;28;20054;-62
2021/07/22 06:56:19;;;;;;;4.47;2.47;;;17.90;99.90;;;;;;10270054;28;20047;-62
2021/07/22 07:01:23;;;;;;;5.43;3.05;;;18.20;99.90;;;;;;10267358;28;20073;-62
2021/07/22 07:06:25;;;;;;;6.25;2.92;;;18.40;99.90;;;;;;10271054;28;20055;-61
2021/07/22 07:11:30;;;;;;;7.07;2.55;;;18.60;99.90;;;;;;10267858;28;20524;-62
2021/07/22 07:16:31;;;;;;;7.25;3.45;;;18.90;99.90;;;;;;10268666;28;20109;-62
2021/07/22 07:21:51;;;;;;;6.18;2.92;;;19.10;99.90;;;;;;10267410;28;20118;-62
2021/07/22 07:26:53;;;;;;;8.65;2.60;;;19.30;99.90;;;;;;10219585;28;20128;-62
2021/07/22 07:31:59;;;;;;;4.95;2.75;;;19.50;99.90;;;;;;10271785;28;20105;-62
2021/07/22 07:37:03;;;;;;;8.05;3.10;;;19.70;99.90;;;;;;10269382;28;20101;-62
2021/07/22 07:42:05;;;;;;;6.32;2.22;;;19.80;99.90;;;;;;10268831;28;20105;-62
2021/07/22 07:47:07;;;;;;;5.80;3.20;;;20.20;99.90;;;;;;10269172;28;20050;-61
2021/07/22 07:52:08;;;;;;;5.30;2.63;;;20.40;99.90;;;;;;10261505;28;20055;-62
2021/07/22 07:57:13;;;;;;;7.22;2.70;;;20.60;99.90;;;;;;10269998;28;20047;-62
2021/07/22 08:02:15;;;;;;;7.03;2.88;;;20.60;99.80;;;;;;10263219;28;20055;-62
2021/07/22 08:07:18;;;;;;;6.72;2.47;;;20.70;97.00;;;;;;10268285;28;20053;-62
2021/07/22 08:12:19;;;;;;;7.57;2.83;;;20.90;98.80;;;;;;10263883;28;20163;-63
2021/07/22 08:17:25;;;;;;;3.95;2.17;;;21.20;96.40;;;;;;10080409;28;20046;-62
2021/07/22 08:22:29;;;;;;;3.40;1.95;;;21.30;95.30;;;;;;10267264;28;20047;-62
2021/07/22 08:27:32;;;;;;;3.33;2.78;;;21.60;94.10;;;;;;10265070;28;20129;-62
2021/07/22 08:32:34;;;;;;;4.95;2.53;;;21.80;95.40;;;;;;10269050;28;20062;-62
2021/07/22 08:37:36;;;;;;;6.22;2.25;;;21.90;94.30;;;;;;10268506;28;20051;-62
2021/07/22 08:42:40;;;;;;;6.22;2.65;;;22.10;93.40;;;;;;10266263;28;20058;-62
2021/07/22 08:47:42;;;;;;;4.25;2.00;;;22.10;91.70;;;;;;10264763;28;20058;-61
2021/07/22 08:52:46;;;;;;;5.13;2.60;;;22.20;90.70;;;;;;10260318;28;20050;-62
2021/07/22 08:57:49;;;;;;;4.82;2.17;;;22.40;90.70;;;;;;10257350;28;20474;-61
2021/07/22 09:02:52;;;;;;;3.58;2.45;;;22.70;88.70;;;;;;10260719;28;20058;-62
2021/07/22 09:07:53;;;;;;;3.92;2.03;;;22.80;84.00;;;;;;10261590;28;20506;-62
2021/07/22 09:12:55;;;;;;;3.15;2.13;;;22.80;87.60;;;;;;10266212;28;20046;-63
2021/07/22 09:18:20;;;;;;;9.25;2.63;;;23.10;83.00;;;;;;10264775;28;20473;-63
2021/07/22 09:23:24;;;;;;;5.32;3.28;;;23.30;82.30;;;;;;10221804;28;20113;-62
2021/07/22 09:28:28;;;;;;;4.70;2.88;;;23.50;78.10;;;;;;10268955;28;20053;-62
2021/07/22 09:33:41;;;;;;;4.38;2.50;;;23.70;78.20;;;;;;10275571;28;20050;-62
2021/07/22 09:38:43;;;;;;;6.32;2.50;;;24.00;75.20;;;;;;10271501;28;20055;-61
2021/07/22 09:43:45;;;;;;;4.18;2.70;;;24.00;76.60;;;;;;10269841;28;20077;-62
2021/07/22 09:49:09;;;;;;;5.38;2.75;;;24.20;71.20;;;;;;10269762;28;20110;-62
2021/07/22 09:54:12;;;;;;;4.78;2.97;;;23.90;68.50;;;;;;10271367;28;20456;-62
2021/07/22 09:59:14;;;;;;;3.85;2.60;;;24.30;72.10;;;;;;10274021;28;20117;-63
2021/07/22 10:04:22;;;;;;;4.55;3.00;;;24.30;68.30;;;;;;10269940;28;20050;-63
2021/07/22 10:09:27;;;;;;;6.32;3.08;;;24.50;69.70;;;;;;10263903;28;20460;-63
2021/07/22 10:14:31;;;;;;;5.30;2.58;;;24.30;68.10;;;;;;10261901;28;20097;-62
2021/07/22 10:19:36;;;;;;;4.82;2.50;;;24.60;67.10;;;;;;10260622;28;20453;-63
2021/07/22 10:24:39;;;;;;;4.82;2.40;;;24.80;69.70;;;;;;10266283;28;20051;-63
2021/07/22 10:29:41;;;;;;;7.07;3.00;;;25.10;68.10;;;;;;10262299;28;20386;-63
2021/07/22 10:34:45;;;;;;;4.63;2.55;;;25.40;68.60;;;;;;10268368;28;20086;-63
2021/07/22 10:40:22;;;;;;;3.97;2.75;;;25.40;65.30;;;;;;10267554;28;20924;-63
2021/07/22 10:45:26;;;;;;;5.55;2.40;;;25.50;64.50;;;;;;10221122;28;20121;-58
2021/07/22 10:50:54;;;;;;;5.00;3.05;;;25.30;66.40;;;;;;10263848;28;20046;-59
2021/07/22 10:55:56;;;;;;;6.10;2.75;;;26.00;63.60;;;;;;10219791;28;20047;-58
2021/07/22 11:00:58;;;;;;;6.22;3.22;;;26.80;61.40;;;;;;10261074;28;20097;-58
2021/07/22 11:06:05;;;;;;;7.05;4.32;;;27.30;62.70;;;;;;10268807;28;20054;-59
2021/07/22 11:11:17;;;;;;;6.15;3.60;;;28.10;60.50;;;;;;10269327;28;20130;-61
2021/07/22 11:16:29;;;;;;;12.73;4.63;;;28.40;59.20;;;;;;10186051;28;1013154;-60
2021/07/22 11:21:34;;;;;;;6.18;3.42;;;28.50;59.50;;;;;;10270157;28;20389;-59
2021/07/22 11:26:40;;;;;;;4.90;2.90;;;28.70;58.80;;;;;;10268247;28;20592;-60
2021/07/22 11:31:53;;;;;;;8.07;3.30;;;28.60;57.20;;;;;;10263716;28;20042;-59
2021/07/22 11:36:57;;;;;;;9.20;3.33;;;27.70;56.10;;;;;;10271737;28;20050;-59
2021/07/22 11:42:07;;;;;;;6.72;2.97;;;27.70;56.80;;;;;;10272331;28;20051;-57
2021/07/22 11:47:13;;;;;;;4.60;2.42;;;27.80;58.00;;;;;;10267536;28;21049;-58
2021/07/22 11:52:16;;;;;;;5.22;2.70;;;28.00;59.20;;;;;;10269405;28;20043;-59
2021/07/22 11:57:18;;;;;;;5.40;2.97;;;27.70;59.90;;;;;;10267517;28;20081;-57
2021/07/22 12:02:20;;;;;;;3.80;2.20;;;27.20;58.00;;;;;;10263004;28;20058;-57
2021/07/22 12:07:28;;;;;;;4.35;2.70;;;27.00;59.20;;;;;;10259449;28;20046;-57
2021/07/22 12:12:33;;;;;;;4.20;2.53;;;26.80;58.70;;;;;;10259039;28;20054;-58
2021/07/22 12:17:36;;;;;;;4.78;2.45;;;27.40;60.20;;;;;;10263934;28;20046;-57
2021/07/22 12:22:38;;;;;;;4.28;2.63;;;27.70;60.10;;;;;;10261526;28;20051;-56
2021/07/22 12:27:43;;;;;;;3.70;2.45;;;27.20;58.90;;;;;;10257091;28;20411;-57
2021/07/22 12:33:05;;;;;;;4.20;2.55;;;27.50;58.60;;;;;;10263533;28;20552;-58
2021/07/22 12:38:09;;;;;;;3.50;2.10;;;27.60;58.20;;;;;;10266771;28;20038;-57
2021/07/22 12:43:13;;;;;;;5.82;2.63;;;27.90;56.90;;;;;;10265747;28;20097;-58
2021/07/22 12:48:15;;;;;;;3.65;2.15;;;28.20;57.40;;;;;;10266020;28;20490;-57
2021/07/22 12:53:38;;;;;;;5.13;2.28;;;27.90;56.20;;;;;;10262177;28;20133;-58
2021/07/22 12:58:44;;;;;;;3.88;2.13;;;28.30;56.50;;;;;;10262401;28;20059;-58
2021/07/22 13:03:51;;;;;;;2.80;2.00;;;27.70;56.70;;;;;;10262427;28;20109;-58
2021/07/22 13:08:54;;;;;;;4.65;2.65;;;27.30;57.80;;;;;;10273059;28;20053;-57
2021/07/22 13:13:56;;;;;;;5.57;2.42;;;28.00;57.80;;;;;;10267444;28;20043;-57
2021/07/22 13:18:58;;;;;;;6.22;2.30;;;28.20;56.70;;;;;;10264390;28;20050;-57
2021/07/22 13:23:59;;;;;;;3.38;2.25;;;28.40;57.40;;;;;;10267728;28;20058;-57
2021/07/22 13:29:01;;;;;;;3.95;2.33;;;28.00;56.80;;;;;;10266332;28;20126;-56
2021/07/22 13:34:03;;;;;;;4.90;2.67;;;28.60;58.00;;;;;;10261941;28;20061;-56
2021/07/22 13:39:07;;;;;;;3.28;2.15;;;28.90;54.80;;;;;;10262858;28;20047;-57
2021/07/22 13:44:08;;;;;;;3.17;2.30;;;29.40;55.50;;;;;;10265703;28;20105;-57
2021/07/22 13:49:10;;;;;;;3.78;2.28;;;29.20;55.70;;;;;;10262716;28;20113;-61
2021/07/22 13:54:12;;;;;;;5.32;2.47;;;28.90;55.40;;;;;;10264724;28;20116;-58
2021/07/22 13:59:15;;;;;;;5.00;2.40;;;29.30;56.20;;;;;;10263572;28;20065;-58
2021/07/22 14:04:17;;;;;;;4.40;2.95;;;30.50;53.40;;;;;;10264216;28;20051;-57
2021/07/22 14:09:19;;;;;;;3.70;1.95;;;30.40;54.10;;;;;;10257915;28;20043;-56
2021/07/22 14:14:21;;;;;;;3.75;2.42;;;29.90;53.50;;;;;;10256701;28;20065;-57
2021/07/22 14:19:22;;;;;;;3.13;2.45;;;29.30;54.10;;;;;;10266818;28;20054;-56
2021/07/22 14:24:27;;;;;;;4.65;2.35;;;30.00;55.10;;;;;;10268631;28;20077;-57
2021/07/22 14:29:31;;;;;;;4.47;2.58;;;30.50;54.50;;;;;;10261335;28;20043;-57
2021/07/22 14:34:33;;;;;;;3.40;2.60;;;30.00;54.10;;;;;;10264139;28;20039;-57
2021/07/22 14:39:35;;;;;;;3.72;2.15;;;29.40;54.80;;;;;;10272289;28;20965;-56
2021/07/22 14:44:37;;;;;;;3.08;2.13;;;29.00;55.70;;;;;;10262728;28;20486;-55
2021/07/22 14:49:39;;;;;;;3.92;2.50;;;28.90;55.90;;;;;;10265094;28;20129;-56
2021/07/22 14:54:43;;;;;;;3.85;1.88;;;28.60;57.50;;;;;;10264203;28;20097;-57
2021/07/22 14:59:45;;;;;;;3.30;1.80;;;28.30;57.10;;;;;;10262545;28;20047;-55
2021/07/22 15:04:47;;;;;;;3.50;2.05;;;28.10;57.20;;;;;;10264117;28;20117;-57
2021/07/22 15:09:49;;;;;;;7.10;2.60;;;27.90;58.10;;;;;;10265785;28;20651;-57
2021/07/22 15:14:53;;;;;;;7.15;2.40;;;27.70;59.20;;;;;;10267529;28;20105;-56
2021/07/22 15:19:56;;;;;;;4.93;1.88;;;27.60;58.80;;;;;;10270908;28;20054;-55
2021/07/22 15:25:03;;;;;;;6.78;2.03;;;27.40;59.30;;;;;;10265624;28;20469;-55
2021/07/22 15:30:07;;;;;;;8.25;2.63;;;27.90;59.80;;;;;;10266302;28;22149;-55
2021/07/22 15:35:09;;;;;;;10.23;1.88;;;27.50;59.20;;;;;;10266219;28;20050;-56
2021/07/22 15:40:11;;;;;;;2.70;1.92;;;27.00;59.70;;;;;;10266475;28;20042;-57
2021/07/22 15:45:13;;;;;;;6.88;2.10;;;26.80;60.00;;;;;;10266039;28;20120;-57
2021/07/22 15:50:15;;;;;;;4.97;2.10;;;26.80;60.60;;;;;;10266405;28;20066;-63
2021/07/22 15:55:16;;;;;;;5.75;1.90;;;26.60;61.00;;;;;;10267728;28;20054;-67
2021/07/22 16:00:18;;;;;;;4.45;2.20;;;26.40;62.60;;;;;;10256847;28;20046;-63
2021/07/22 16:05:20;;;;;;;6.20;2.33;;;26.30;63.20;;;;;;10261455;28;20043;-64
2021/07/22 16:10:22;;;;;;;3.95;2.00;;;26.40;62.80;;;;;;10269758;28;20593;-64
2021/07/22 16:15:27;;;;;;;6.50;2.20;;;26.30;62.50;;;;;;10266519;28;20077;-64
2021/07/22 16:20:29;;;;;;;2.85;2.03;;;26.20;63.40;;;;;;10268844;28;20050;-66
2021/07/22 16:25:33;;;;;;;2.92;1.90;;;26.60;63.10;;;;;;10263751;28;20108;-67
2021/07/22 16:30:36;;;;;;;6.25;2.75;;;26.60;62.70;;;;;;10268646;28;20961;-63
2021/07/22 16:35:39;;;;;;;4.22;2.08;;;26.50;61.70;;;;;;10264015;28;20053;-65
2021/07/22 16:40:42;;;;;;;3.08;1.88;;;26.50;61.90;;;;;;10259747;28;20054;-65
2021/07/22 16:45:46;;;;;;;4.18;2.50;;;26.50;62.00;;;;;;10267455;28;20101;-64
2021/07/22 16:50:47;;;;;;;3.28;2.00;;;27.10;60.70;;;;;;10263682;28;20109;-65
2021/07/22 16:55:49;;;;;;;3.55;1.77;;;27.30;61.40;;;;;;10259617;28;20103;-66
2021/07/22 17:00:51;;;;;;;2.65;2.08;;;27.70;57.70;;;;;;10264155;28;20051;-66
2021/07/22 17:05:54;;;;;;;2.72;1.92;;;28.10;57.00;;;;;;10268153;28;20138;-66
2021/07/22 17:10:56;;;;;;;2.33;1.52;;;27.90;57.10;;;;;;10258888;28;20067;-66
2021/07/22 17:16:00;;;;;;;2.53;1.60;;;27.70;55.80;;;;;;10264933;28;20043;-65
2021/07/22 17:21:02;;;;;;;4.78;1.50;;;27.80;56.60;;;;;;10264941;28;20066;-66
2021/07/22 17:26:04;;;;;;;3.22;1.90;;;28.10;56.80;;;;;;10264072;28;20469;-65
2021/07/22 17:31:06;;;;;;;7.65;1.85;;;28.20;55.60;;;;;;10268470;28;20122;-65
2021/07/22 17:36:09;;;;;;;3.80;1.95;;;28.30;55.40;;;;;;10264539;28;20039;-64
2021/07/22 17:41:13;;;;;;;3.22;1.80;;;28.00;56.20;;;;;;10267152;28;20117;-64
2021/07/22 17:46:16;;;;;;;2.75;1.40;;;28.20;56.00;;;;;;10264944;28;20051;-64
2021/07/22 17:51:20;;;;;;;2.72;1.35;;;28.00;56.50;;;;;;10259270;28;20521;-65
2021/07/22 17:56:22;;;;;;;5.85;1.85;;;28.10;56.50;;;;;;10267988;28;20055;-66
2021/07/22 18:01:24;;;;;;;2.42;1.90;;;28.30;55.80;;;;;;10270823;28;20054;-64
2021/07/22 18:06:26;;;;;;;5.93;1.70;;;28.10;55.90;;;;;;10272004;28;20047;-64
2021/07/22 18:11:29;;;;;;;5.20;2.28;;;28.10;56.70;;;;;;10270333;28;20101;-65
2021/07/22 18:16:33;;;;;;;7.40;3.53;;;27.30;57.40;;;;;;10277843;28;20049;-63
2021/07/22 18:28:18;;;;;;;4.35;1.70;;;26.20;60.20;;;;;;10213240;28;20043;-64
2021/07/22 18:33:30;;;;;;;2.92;1.85;;;25.90;61.60;;;;;;10268791;28;20102;-64
2021/07/22 18:38:32;;;;;;;3.75;1.92;;;25.50;62.60;;;;;;10279059;28;20059;-63
2021/07/22 18:43:33;;;;;;;6.45;2.30;;;25.30;63.40;;;;;;10250868;28;20129;-58
2021/07/22 18:48:35;;;;;;;4.53;2.42;;;25.10;64.80;;;;;;10269034;28;20430;-63
2021/07/22 18:53:37;;;;;;;8.25;1.95;;;24.80;65.60;;;;;;10268445;28;20054;-60
2021/07/22 18:58:39;;;;;;;3.70;2.35;;;24.40;66.40;;;;;;10268957;28;20106;-59
2021/07/22 19:03:41;;;;;;;4.90;1.95;;;24.00;68.10;;;;;;10266770;28;20105;-59
2021/07/22 19:08:42;;;;;;;4.70;2.05;;;23.80;69.10;;;;;;10268584;28;20090;-59
2021/07/22 19:13:45;;;;;;;5.47;2.47;;;23.50;70.70;;;;;;10269391;28;20128;-60
2021/07/22 19:18:48;;;;;;;4.00;2.25;;;23.30;72.20;;;;;;10265817;28;20112;-59
2021/07/22 19:23:52;;;;;;;4.88;2.38;;;23.10;73.60;;;;;;10265406;28;20058;-58
2021/07/22 19:28:53;;;;;;;4.53;2.60;;;22.90;75.10;;;;;;10268032;28;20058;-58
2021/07/22 19:33:55;;;;;;;6.40;2.97;;;22.60;76.00;;;;;;10264253;28;20046;-58
2021/07/22 19:38:57;;;;;;;5.65;2.92;;;22.40;77.20;;;;;;10264889;28;20051;-58
2021/07/22 19:43:59;;;;;;;7.20;3.15;;;22.20;78.30;;;;;;10266873;28;20117;-58
2021/07/22 19:49:01;;;;;;;6.80;3.50;;;22.00;78.90;;;;;;10267203;28;20059;-59
2021/07/22 19:54:03;;;;;;;11.65;7.63;;;21.80;79.50;;;;;;10268796;28;20120;-59
2021/07/22 19:59:06;;;;;;;11.13;6.18;;;21.60;80.30;;;;;;10268747;28;20129;-60
2021/07/22 20:04:08;;;;;;;6.95;5.10;;;21.30;80.70;;;;;;10267355;28;20054;-59
2021/07/22 20:09:10;;;;;;;15.30;9.35;;;21.00;81.90;;;;;;10266791;28;20387;-57
2021/07/22 20:14:11;;;;;;;21.63;9.43;;;20.90;83.00;;;;;;10267953;28;20066;-57
2021/07/22 20:19:13;;;;;;;10.57;6.03;;;20.70;84.30;;;;;;10267779;28;20056;-57
2021/07/22 20:24:15;;;;;;;7.13;4.70;;;20.70;85.60;;;;;;10268519;28;20097;-63
2021/07/22 20:29:17;;;;;;;7.75;4.20;;;20.50;87.10;;;;;;10268796;28;20054;-64
2021/07/22 20:34:19;;;;;;;6.15;2.22;;;20.40;90.10;;;;;;10267989;28;20133;-62
2021/07/22 20:39:20;;;;;;;6.68;3.25;;;20.20;90.80;;;;;;10269497;28;20054;-63
2021/07/22 20:44:23;;;;;;;6.22;2.50;;;20.10;91.90;;;;;;10265325;28;20042;-63
2021/07/22 20:49:24;;;;;;;6.78;3.00;;;20.00;93.00;;;;;;10231661;28;20124;-64
2021/07/22 20:54:26;;;;;;;5.53;2.75;;;19.90;95.40;;;;;;10256180;28;20101;-63
2021/07/22 20:59:28;;;;;;;7.30;3.08;;;19.70;97.00;;;;;;10251100;28;20078;-62
2021/07/22 21:04:29;;;;;;;6.00;2.67;;;19.60;98.90;;;;;;10269671;28;20042;-64
2021/07/22 21:09:32;;;;;;;5.90;3.08;;;19.50;99.30;;;;;;10266633;28;20141;-63
2021/07/22 21:14:34;;;;;;;6.07;3.40;;;19.40;99.90;;;;;;10265958;28;20460;-65
2021/07/22 21:19:36;;;;;;;7.88;3.55;;;19.30;99.90;;;;;;10267525;28;20047;-66
2021/07/22 21:24:38;;;;;;;9.68;3.17;;;19.20;99.90;;;;;;10267713;28;20101;-66
2021/07/22 21:29:40;;;;;;;15.07;4.90;;;19.10;99.90;;;;;;10274078;28;20058;-65
2021/07/22 21:34:41;;;;;;;5.40;3.25;;;19.00;99.90;;;;;;10276185;28;20120;-66
2021/07/22 21:39:43;;;;;;;9.45;4.03;;;18.80;99.90;;;;;;10274913;28;20105;-66
2021/07/22 21:44:45;;;;;;;8.35;3.70;;;18.80;99.90;;;;;;10276851;28;20132;-67
2021/07/22 21:49:47;;;;;;;12.48;3.78;;;18.60;99.90;;;;;;10273803;28;20051;-66
2021/07/22 21:54:48;;;;;;;6.65;2.95;;;18.70;99.90;;;;;;10273730;28;20071;-65
2021/07/22 21:59:50;;;;;;;7.63;3.83;;;18.60;99.90;;;;;;10273972;28;20058;-67
2021/07/22 22:04:51;;;;;;;8.63;3.35;;;18.50;99.90;;;;;;10273649;28;20086;-67
2021/07/22 22:09:53;;;;;;;7.80;3.33;;;18.40;99.90;;;;;;10267148;28;20058;-68
2021/07/22 22:14:55;;;;;;;9.50;4.22;;;18.30;99.90;;;;;;10271960;28;20113;-67
2021/07/22 22:19:57;;;;;;;7.47;3.50;;;18.20;99.90;;;;;;10271164;28;20136;-67
2021/07/22 22:24:58;;;;;;;6.60;3.47;;;18.10;99.90;;;;;;10272153;28;20051;-67
2021/07/22 22:30:01;;;;;;;5.20;2.75;;;18.00;99.90;;;;;;10270500;28;20541;-67
2021/07/22 22:35:03;;;;;;;5.70;3.30;;;18.00;99.90;;;;;;10272347;28;20170;-68
2021/07/22 22:40:05;;;;;;;7.20;3.60;;;17.90;99.90;;;;;;10269320;28;20513;-68
2021/07/22 22:45:07;;;;;;;4.50;3.00;;;17.70;99.90;;;;;;10272077;28;20086;-67
2021/07/22 22:50:09;;;;;;;7.00;3.28;;;17.70;99.90;;;;;;10272388;28;20516;-68
2021/07/22 22:55:11;;;;;;;6.97;3.75;;;17.60;99.90;;;;;;10269434;28;20054;-67
2021/07/22 23:00:13;;;;;;;10.90;6.05;;;17.50;99.90;;;;;;10270978;28;20109;-67
2021/07/22 23:05:15;;;;;;;15.48;7.47;;;17.40;99.90;;;;;;10271642;28;20093;-67
2021/07/22 23:10:17;;;;;;;20.33;8.75;;;17.30;99.90;;;;;;10270909;28;20050;-68
2021/07/22 23:15:19;;;;;;;23.48;10.85;;;17.20;99.90;;;;;;10270955;28;20074;-68
2021/07/22 23:20:21;;;;;;;18.10;9.15;;;17.20;99.90;;;;;;10271635;28;20117;-67
2021/07/22 23:25:22;;;;;;;17.40;7.18;;;17.20;99.90;;;;;;10269946;28;20161;-67
2021/07/22 23:30:24;;;;;;;10.35;5.72;;;17.10;99.90;;;;;;10270673;28;20051;-67
2021/07/22 23:35:26;;;;;;;16.85;8.65;;;17.00;99.90;;;;;;10270666;28;20074;-68
2021/07/22 23:40:28;;;;;;;13.77;6.57;;;17.10;99.90;;;;;;10269009;28;20553;-68
2021/07/22 23:45:29;;;;;;;13.75;6.22;;;17.00;99.90;;;;;;10267328;28;20129;-67
2021/07/22 23:50:31;;;;;;;10.52;4.80;;;16.90;99.90;;;;;;10268223;28;20051;-67
2021/07/22 23:55:33;;;;;;;9.32;4.75;;;16.90;99.90;;;;;;10269217;28;20128;-67
